Time;durP1;ratioP1;P1;durP2;ratioP2;P2;SDS_P1;SDS_P2;PMS_P1;PMS_P2;Temp;Humidity;BMP_temperature;BMP_pressure;BME280_temperature;BME280_humidity;BME280_pressure;Samples;Min_cycle;Max_cycle;Signal;HPM_P1;HPM_P2
2022/05/01 00:01:33;;;;;;;10.00;5.15;;;;;;;27.11;15.09;98605.00;5072550;28;20417;-82
2022/05/01 00:03:59;;;;;;;7.97;4.38;;;;;;;27.21;14.95;98599.06;5073447;28;20060;-82
2022/05/01 00:06:25;;;;;;;8.63;5.10;;;;;;;27.27;14.92;98596.53;5072817;28;20044;-82
2022/05/01 00:08:51;;;;;;;10.18;5.95;;;;;;;27.30;15.32;98599.28;5063416;28;20024;-82
2022/05/01 00:11:17;;;;;;;7.95;3.88;;;;;;;27.33;15.05;98598.34;5072509;28;20039;-82
2022/05/01 00:13:45;;;;;;;9.05;4.93;;;;;;;26.66;15.89;98594.44;5071638;28;20131;-82
2022/05/01 00:16:12;;;;;;;9.05;5.38;;;;;;;26.20;16.10;98589.09;5072483;28;20427;-82
2022/05/01 00:18:38;;;;;;;8.93;5.03;;;;;;;25.49;16.59;98603.81;5072493;28;20493;-82
2022/05/01 00:21:04;;;;;;;10.68;5.13;;;;;;;25.31;16.96;98581.63;5071909;28;20401;-81
2022/05/01 00:23:31;;;;;;;11.32;6.10;;;;;;;25.69;16.96;98592.56;5072490;28;20036;-82
2022/05/01 00:25:59;;;;;;;8.43;4.75;;;;;;;25.87;16.41;98582.53;5071877;28;20037;-82
2022/05/01 00:28:25;;;;;;;8.63;4.35;;;;;;;26.14;16.28;98593.63;5071995;28;20043;-81
2022/05/01 00:30:51;;;;;;;8.10;3.95;;;;;;;26.46;16.02;98599.34;5042835;28;20044;-81
2022/05/01 00:38:47;;;;;;;10.65;5.10;;;;;;;27.31;15.33;98598.00;5072054;28;20066;-81
2022/05/01 00:41:14;;;;;;;14.68;5.60;;;;;;;27.49;15.16;98599.59;5072212;28;20047;-82
2022/05/01 00:44:06;;;;;;;7.75;4.22;;;;;;;27.40;14.78;98591.75;5068546;28;20029;-82
2022/05/01 00:46:35;;;;;;;8.50;4.68;;;;;;;27.21;15.13;98593.44;5072778;28;20069;-82
2022/05/01 00:49:04;;;;;;;9.85;5.53;;;;;;;27.17;15.11;98591.94;5071394;28;20028;-82
2022/05/01 00:51:33;;;;;;;10.13;5.43;;;;;;;27.31;15.10;98598.00;5070777;28;20035;-82
2022/05/01 00:54:00;;;;;;;14.55;5.90;;;;;;;27.22;14.97;98591.41;5071390;28;20405;-82
2022/05/01 00:56:28;;;;;;;10.95;5.20;;;;;;;27.19;15.13;98590.28;5051762;28;20036;-82
2022/05/01 00:58:55;;;;;;;9.20;5.35;;;;;;;26.81;15.37;98588.47;5069533;28;20485;-82
2022/05/01 01:01:21;;;;;;;12.20;4.65;;;;;;;26.33;15.75;98587.16;5050754;28;20032;-82
2022/05/01 01:03:48;;;;;;;5.88;4.22;;;;;;;26.07;16.31;98588.94;5071117;28;20032;-81
2022/05/01 01:06:14;;;;;;;11.90;6.05;;;;;;;25.85;16.53;98587.00;5070594;28;20063;-81
2022/05/01 01:08:40;;;;;;;12.07;6.07;;;;;;;25.97;16.38;98587.16;5067667;28;20060;-81
2022/05/01 01:11:06;;;;;;;12.52;6.35;;;;;;;26.25;15.95;98582.16;5050955;28;20512;-82
2022/05/01 01:13:33;;;;;;;16.25;6.53;;;;;;;26.62;15.88;98588.09;5069883;28;20055;-82
2022/05/01 01:15:59;;;;;;;19.95;6.82;;;;;;;26.84;15.57;98581.97;5069062;28;20025;-82
2022/05/01 01:18:26;;;;;;;15.40;6.70;;;;;;;27.00;15.29;98579.13;5050695;28;20039;-82
2022/05/01 01:20:53;;;;;;;16.08;7.70;;;;;;;27.07;15.14;98578.94;5069575;28;20107;-81
2022/05/01 01:23:20;;;;;;;17.25;6.88;;;;;;;27.04;15.46;98572.16;5071333;28;20056;-81
2022/05/01 01:25:47;;;;;;;12.57;5.80;;;;;;;27.00;15.43;98577.09;5067257;28;20048;-82
2022/05/01 01:28:14;;;;;;;12.63;5.85;;;;;;;26.81;15.46;98577.19;5067174;28;20032;-81
2022/05/01 01:33:28;;;;;;;14.65;6.00;;;;;;;25.75;16.52;98568.31;5070488;28;20044;-82
2022/05/01 01:35:58;;;;;;;8.27;5.32;;;;;;;25.40;16.87;98572.63;5053126;28;20504;-81
2022/05/01 01:38:24;;;;;;;10.73;5.53;;;;;;;25.53;16.98;98568.00;5051046;28;20457;-82
2022/05/01 01:40:56;;;;;;;11.55;5.22;;;;;;;25.84;16.35;98568.53;5067605;28;20055;-82
2022/05/01 01:43:33;;;;;;;7.22;4.40;;;;;;;25.94;16.19;98573.16;5068413;28;20446;-82
2022/05/01 01:46:00;;;;;;;9.20;4.10;;;;;;;26.00;16.65;98566.56;5069545;28;20028;-81
2022/05/01 01:48:26;;;;;;;8.50;4.43;;;;;;;25.98;16.75;98573.84;5069776;28;20107;-82
2022/05/01 01:50:58;;;;;;;6.88;4.65;;;;;;;26.34;16.08;98571.88;5069611;28;20037;-82
2022/05/01 01:53:24;;;;;;;9.02;4.63;;;;;;;26.63;15.87;98569.94;5068187;28;20115;-82
2022/05/01 01:55:51;;;;;;;9.38;4.57;;;;;;;26.74;15.71;98570.50;5067822;28;20041;-83
2022/05/01 01:58:18;;;;;;;11.63;5.30;;;;;;;26.18;16.48;98569.03;5068279;28;20765;-82
2022/05/01 02:00:44;;;;;;;9.50;5.10;;;;;;;25.95;16.48;98560.69;5068537;28;20028;-82
2022/05/01 02:03:11;;;;;;;8.93;4.47;;;;;;;25.81;16.78;98564.56;5064000;28;20107;-82
2022/05/01 02:05:37;;;;;;;9.98;4.63;;;;;;;25.41;17.48;98571.41;5067624;28;20401;-82
2022/05/01 02:08:07;;;;;;;10.38;4.80;;;;;;;25.24;17.70;98555.66;5064609;28;20488;-82
2022/05/01 02:10:33;;;;;;;7.60;4.28;;;;;;;25.60;17.19;98559.38;5066222;28;20072;-83
2022/05/01 02:13:00;;;;;;;9.43;4.65;;;;;;;25.68;17.06;98557.22;5064867;28;20366;-82
2022/05/01 02:15:30;;;;;;;10.05;4.60;;;;;;;25.98;16.50;98559.78;5066180;28;20059;-82
2022/05/01 02:17:58;;;;;;;7.78;4.95;;;;;;;26.39;16.53;98562.91;5064295;28;20039;-82
2022/05/01 02:20:25;;;;;;;9.52;5.13;;;;;;;26.62;15.97;98559.94;5066208;28;20520;-83
2022/05/01 02:22:54;;;;;;;8.65;4.82;;;;;;;26.29;16.23;98566.75;5067369;28;20028;-82
2022/05/01 02:25:23;;;;;;;9.30;5.28;;;;;;;26.36;16.45;98557.34;5063467;28;20440;-82
2022/05/01 02:27:50;;;;;;;10.77;5.22;;;;;;;26.41;16.43;98562.47;5065310;28;20039;-82
2022/05/01 02:30:16;;;;;;;9.02;4.68;;;;;;;26.26;16.24;98566.81;5044100;28;20379;-82
2022/05/01 02:32:42;;;;;;;9.00;4.82;;;;;;;26.15;16.46;98564.25;5066409;28;20037;-83
2022/05/01 02:35:10;;;;;;;11.10;5.63;;;;;;;26.36;16.50;98560.16;5049155;28;20020;-82
2022/05/01 02:37:36;;;;;;;13.05;5.82;;;;;;;26.57;15.78;98568.09;5066196;28;20107;-82
2022/05/01 02:40:04;;;;;;;7.53;5.05;;;;;;;26.00;16.19;98566.56;5068164;28;20400;-83
2022/05/01 02:42:30;;;;;;;8.80;4.90;;;;;;;25.27;17.03;98561.25;5066309;28;20113;-82
2022/05/01 02:44:59;;;;;;;7.40;4.30;;;;;;;24.67;17.25;98565.06;5066569;28;20429;-82
2022/05/01 02:47:25;;;;;;;8.05;5.38;;;;;;;24.50;18.28;98560.56;5064855;28;20793;-82
2022/05/01 02:49:51;;;;;;;8.88;4.70;;;;;;;24.36;18.60;98568.41;5066627;28;20575;-82
2022/05/01 02:52:17;;;;;;;10.13;5.18;;;;;;;24.70;17.95;98552.19;5068060;28;20513;-82
2022/05/01 02:54:43;;;;;;;9.25;4.88;;;;;;;25.00;17.75;98554.91;5070131;28;20070;-82
2022/05/01 02:57:09;;;;;;;7.63;5.13;;;;;;;25.50;17.24;98554.78;5055139;28;20031;-82
2022/05/01 02:59:35;;;;;;;9.18;4.57;;;;;;;25.79;16.77;98546.56;5070213;28;20049;-82
2022/05/01 03:02:01;;;;;;;9.13;4.93;;;;;;;25.93;16.70;98554.66;5070951;28;20032;-82
2022/05/01 03:04:27;;;;;;;7.93;4.88;;;;;;;26.09;16.29;98555.50;5069555;28;20405;-82
2022/05/01 03:06:53;;;;;;;7.80;4.18;;;;;;;26.01;16.35;98551.28;5069826;28;20055;-82
2022/05/01 03:09:19;;;;;;;5.95;4.45;;;;;;;25.82;16.64;98559.75;5068917;28;20032;-82
2022/05/01 03:11:45;;;;;;;7.95;4.75;;;;;;;25.13;17.36;98553.06;5069263;28;20055;-82
2022/05/01 03:14:11;;;;;;;7.65;4.43;;;;;;;24.82;17.54;98551.63;5066153;28;20067;-82
2022/05/01 03:16:38;;;;;;;8.73;4.00;;;;;;;25.08;17.50;98547.16;5070285;28;20036;-82
2022/05/01 03:24:35;;;;;;;6.72;3.95;;;;;;;25.75;16.74;98540.19;5072528;28;20117;-82
2022/05/01 03:27:01;;;;;;;6.15;3.83;;;;;;;25.40;17.34;98550.94;5071347;28;20036;-82
2022/05/01 03:29:27;;;;;;;5.25;3.35;;;;;;;25.16;17.78;98552.19;5071463;28;20040;-82
2022/05/01 03:31:54;;;;;;;7.28;3.85;;;;;;;25.15;17.80;98559.06;5072723;28;20032;-81
2022/05/01 03:34:20;;;;;;;8.02;4.00;;;;;;;25.14;17.79;98545.41;5058204;28;20177;-81
2022/05/01 03:36:47;;;;;;;8.48;4.00;;;;;;;25.35;17.74;98554.25;5070572;28;20035;-82
2022/05/01 03:39:14;;;;;;;8.30;4.38;;;;;;;25.50;17.24;98562.44;5071113;28;20021;-81
2022/05/01 03:41:41;;;;;;;8.38;3.92;;;;;;;25.57;17.19;98560.28;5071153;28;20024;-82
2022/05/01 03:44:10;;;;;;;12.85;5.00;;;;;;;25.59;17.36;98548.56;5071173;28;20047;-81
2022/05/01 03:46:38;;;;;;;9.40;4.57;;;;;;;25.80;17.24;98551.75;5054322;28;20393;-81
2022/05/01 03:49:05;;;;;;;13.02;5.63;;;;;;;26.14;16.93;98557.03;5071484;28;20428;-82
2022/05/01 03:51:33;;;;;;;8.32;4.20;;;;;;;26.26;16.84;98549.94;5071752;28;20115;-82
2022/05/01 03:54:02;;;;;;;9.80;4.20;;;;;;;26.24;16.83;98552.41;5073388;28;20500;-82
2022/05/01 03:56:29;;;;;;;8.50;4.78;;;;;;;26.31;16.77;98549.41;5071691;28;20039;-82
2022/05/01 03:58:56;;;;;;;7.30;3.80;;;;;;;26.15;17.08;98552.22;5071144;28;20041;-82
2022/05/01 04:01:23;;;;;;;11.90;5.22;;;;;;;26.24;17.17;98555.22;5071786;28;20025;-82
2022/05/01 04:03:49;;;;;;;6.85;3.60;;;;;;;26.15;17.80;98546.56;5071554;28;20046;-82
2022/05/01 04:06:15;;;;;;;4.70;3.13;;;;;;;26.22;17.78;98547.22;5070767;28;20048;-82
2022/05/01 04:08:42;;;;;;;7.63;2.80;;;;;;;26.84;17.24;98546.09;5067404;28;20519;-82
2022/05/01 04:11:08;;;;;;;6.57;3.60;;;;;;;27.63;16.84;98540.75;5070853;28;20127;-81
2022/05/01 04:13:35;;;;;;;8.70;3.08;;;;;;;28.30;16.21;98554.88;5070116;28;20057;-81
2022/05/01 04:16:02;;;;;;;9.18;5.03;;;;;;;28.46;15.93;98547.06;5071006;28;20385;-81
2022/05/01 04:18:28;;;;;;;8.35;4.15;;;;;;;28.31;16.49;98551.59;5070345;28;20037;-81
2022/05/01 04:20:54;;;;;;;6.90;3.20;;;;;;;28.10;16.50;98560.72;5066968;28;20039;-82
2022/05/01 04:23:21;;;;;;;5.25;3.20;;;;;;;27.99;16.84;98548.97;5070407;28;20059;-82
2022/05/01 04:25:47;;;;;;;6.07;3.58;;;;;;;28.16;17.09;98553.28;5070281;28;20090;-82
2022/05/01 04:28:13;;;;;;;5.07;3.10;;;;;;;28.90;16.77;98550.88;5070438;28;20501;-82
2022/05/01 04:30:41;;;;;;;5.18;3.05;;;;;;;29.54;16.33;98548.66;5069262;28;20044;-82
2022/05/01 04:33:13;;;;;;;8.05;3.50;;;;;;;29.98;15.88;98553.88;5068564;28;20455;-83
2022/05/01 04:35:44;;;;;;;6.68;3.72;;;;;;;30.19;15.42;98549.41;5069238;28;20700;-83
2022/05/01 04:38:20;;;;;;;;;;;;;;;29.71;16.91;98550.81;5070311;28;20020;-83
2022/05/01 04:40:52;;;;;;;6.15;4.13;;;;;;;29.27;17.05;98555.66;5068914;28;19928;-82
2022/05/01 04:43:21;;;;;;;4.80;3.50;;;;;;;29.54;16.79;98555.09;5051119;28;20499;-82
2022/05/01 04:45:51;;;;;;;4.85;3.25;;;;;;;29.81;16.64;98554.53;5065898;28;20029;-82
2022/05/01 04:48:19;;;;;;;8.93;5.00;;;;;;;29.61;16.86;98548.38;5066192;28;20110;-82
2022/05/01 04:50:46;;;;;;;8.32;5.30;;;;;;;29.40;16.79;98552.78;5070884;28;20028;-83
2022/05/01 04:53:14;;;;;;;9.90;4.60;;;;;;;29.15;17.03;98550.03;5070491;28;20031;-82
2022/05/01 04:55:41;;;;;;;7.95;5.13;;;;;;;29.33;16.79;98544.56;5070357;28;20035;-83
2022/05/01 04:58:09;;;;;;;7.20;4.13;;;;;;;29.73;16.34;98542.66;5070230;28;20421;-82
2022/05/01 05:00:35;;;;;;;7.65;4.03;;;;;;;29.90;16.52;98548.91;5069263;28;20109;-82
2022/05/01 05:03:02;;;;;;;7.90;4.68;;;;;;;29.76;16.87;98550.25;5070686;28;20115;-82
2022/05/01 05:05:31;;;;;;;7.72;4.70;;;;;;;29.67;17.09;98555.03;5068885;28;20033;-82
2022/05/01 05:09:53;;;;;;;7.25;4.75;;;;;;;29.60;17.38;98544.75;5072208;28;20397;-83
2022/05/01 05:10:46;;;;;;;10.55;5.15;;;;;;;29.54;17.50;98557.94;5071192;28;20037;-82
2022/05/01 05:13:13;;;;;;;6.47;4.30;;;;;;;29.77;17.40;98549.00;5070821;28;20041;-82
2022/05/01 05:15:39;;;;;;;4.05;2.95;;;;;;;30.27;16.70;98547.84;5070739;28;20032;-82
2022/05/01 05:18:06;;;;;;;5.25;3.00;;;;;;;30.75;16.06;98557.69;5071091;28;20033;-83
2022/05/01 05:20:32;;;;;;;5.20;3.25;;;;;;;30.96;15.61;98553.97;5069264;28;20539;-83
2022/05/01 05:22:58;;;;;;;3.55;2.65;;;;;;;30.85;16.00;98559.28;5050201;28;20383;-83
2022/05/01 05:25:24;;;;;;;4.93;2.45;;;;;;;31.16;15.52;98556.34;5069681;28;20036;-83
2022/05/01 05:27:50;;;;;;;3.83;2.70;;;;;;;30.94;15.82;98559.34;5071103;28;20493;-83
2022/05/01 05:30:16;;;;;;;4.97;3.00;;;;;;;30.34;16.43;98556.09;5068387;28;20475;-83
2022/05/01 05:32:42;;;;;;;6.38;3.38;;;;;;;30.03;15.99;98561.75;5070609;28;20104;-82
2022/05/01 05:35:08;;;;;;;5.45;3.17;;;;;;;30.11;16.93;98562.25;5068622;28;20039;-83
2022/05/01 05:37:34;;;;;;;4.10;2.65;;;;;;;30.42;16.25;98565.13;5068234;28;20119;-83
2022/05/01 05:40:01;;;;;;;5.22;2.60;;;;;;;30.83;16.30;98569.53;5067145;28;20393;-83
2022/05/01 05:42:27;;;;;;;4.00;2.70;;;;;;;31.19;15.82;98575.28;5067897;28;20094;-83
2022/05/01 05:44:53;;;;;;;4.10;2.22;;;;;;;31.70;15.17;98570.59;5064705;28;20036;-83
2022/05/01 05:47:19;;;;;;;2.60;2.05;;;;;;;32.09;14.92;98575.28;5067495;28;20103;-83
2022/05/01 05:49:45;;;;;;;5.97;2.95;;;;;;;32.22;14.73;98562.94;5065351;28;20032;-84
2022/05/01 05:52:11;;;;;;;5.25;2.25;;;;;;;32.46;14.90;98578.00;5067086;28;20033;-83
2022/05/01 05:54:39;;;;;;;3.33;2.58;;;;;;;32.39;15.12;98569.84;5068908;28;20040;-85
2022/05/01 05:57:05;;;;;;;3.45;2.30;;;;;;;32.09;15.06;98580.97;5047935;28;20028;-84
2022/05/01 05:59:31;;;;;;;3.53;2.65;;;;;;;31.86;14.85;98572.28;5068095;28;20465;-84
2022/05/01 06:01:57;;;;;;;2.65;2.03;;;;;;;31.52;15.16;98572.66;5069198;28;20028;-85
2022/05/01 06:04:23;;;;;;;4.57;2.92;;;;;;;31.22;15.55;98577.19;5068615;28;20037;-84
2022/05/01 06:06:49;;;;;;;3.40;2.78;;;;;;;30.40;15.44;98584.63;5070872;28;20048;-85
2022/05/01 06:09:15;;;;;;;4.18;2.83;;;;;;;30.18;15.78;98578.97;5068587;28;20031;-83
2022/05/01 06:11:41;;;;;;;4.65;3.03;;;;;;;29.88;16.21;98579.72;5071015;28;20063;-83
2022/05/01 06:14:07;;;;;;;3.03;2.53;;;;;;;30.19;15.83;98582.59;5068634;28;20150;-84
2022/05/01 06:16:33;;;;;;;3.15;2.38;;;;;;;30.50;15.98;98587.03;5067323;28;20033;-84
2022/05/01 06:18:59;;;;;;;4.07;2.35;;;;;;;30.89;15.09;98581.84;5067214;28;20035;-83
2022/05/01 06:21:26;;;;;;;2.53;2.03;;;;;;;30.92;15.58;98590.22;5066860;28;20043;-86
2022/05/01 06:23:53;;;;;;;3.25;2.00;;;;;;;31.26;15.34;98601.31;5069900;28;20036;-84
2022/05/01 06:26:19;;;;;;;3.80;2.28;;;;;;;31.67;14.70;98590.63;5067957;28;20117;-84
2022/05/01 06:28:47;;;;;;;3.13;2.33;;;;;;;31.84;15.42;98586.19;5067592;28;20037;-85
2022/05/01 06:31:15;;;;;;;2.78;2.20;;;;;;;31.84;15.04;98589.03;5068221;28;20695;-84
2022/05/01 06:33:43;;;;;;;4.07;2.88;;;;;;;30.91;15.27;98579.31;5068809;28;20489;-84
2022/05/01 06:36:09;;;;;;;3.17;2.50;;;;;;;31.13;15.87;98583.63;5068568;28;20032;-84
2022/05/01 06:38:36;;;;;;;3.38;2.10;;;;;;;31.51;15.37;98585.28;5067867;28;20025;-83
2022/05/01 06:41:03;;;;;;;2.85;1.92;;;;;;;32.08;15.17;98593.59;5069527;28;20032;-82
2022/05/01 06:43:30;;;;;;;3.40;2.22;;;;;;;31.71;15.07;98585.56;5065557;28;20036;-83
2022/05/01 06:45:57;;;;;;;2.88;2.08;;;;;;;31.73;15.66;98585.88;5066604;28;20469;-83
2022/05/01 06:48:23;;;;;;;3.15;1.98;;;;;;;32.05;14.80;98588.06;5065934;28;20035;-83
2022/05/01 06:50:49;;;;;;;2.78;1.83;;;;;;;32.27;14.90;98591.50;5064205;28;20070;-84
2022/05/01 06:53:15;;;;;;;4.85;2.08;;;;;;;32.35;14.47;98586.28;5067910;28;20059;-84
2022/05/01 06:55:42;;;;;;;5.80;2.80;;;;;;;32.46;14.60;98587.34;5066241;28;20036;-85
2022/05/01 06:58:09;;;;;;;8.95;3.38;;;;;;;32.08;15.27;98585.09;5067838;28;20105;-86
2022/05/01 07:00:35;;;;;;;6.28;2.17;;;;;;;32.34;15.50;98584.69;5044482;28;20074;-86
2022/05/01 07:03:01;;;;;;;3.92;2.42;;;;;;;32.18;15.37;98587.91;5068124;28;20017;-86
2022/05/01 07:05:27;;;;;;;4.90;2.38;;;;;;;32.20;14.99;98583.31;5069375;28;20029;-85
2022/05/01 07:07:54;;;;;;;3.00;2.17;;;;;;;32.20;14.83;98588.19;5068038;28;20039;-86
2022/05/01 07:10:22;;;;;;;3.65;2.58;;;;;;;31.63;15.03;98587.16;5061744;28;20371;-86
2022/05/01 07:12:48;;;;;;;3.80;2.83;;;;;;;31.93;15.57;98592.63;5047630;28;22462;-85
2022/05/01 07:15:15;;;;;;;1.98;1.80;;;;;;;32.48;15.39;98590.50;5067004;28;20418;-85
2022/05/01 07:17:41;;;;;;;4.63;2.90;;;;;;;32.24;15.68;98585.97;5067835;28;20112;-88
2022/05/01 07:20:09;;;;;;;3.25;2.28;;;;;;;32.58;15.06;98586.34;5067077;28;20041;-87
2022/05/01 07:22:35;;;;;;;7.38;3.08;;;;;;;33.10;15.06;98593.53;5061292;28;20501;-84
2022/05/01 07:25:01;;;;;;;3.33;2.35;;;;;;;33.44;14.88;98592.19;5054861;28;20032;-84
2022/05/01 07:27:28;;;;;;;5.07;2.90;;;;;;;33.28;14.01;98587.72;5070694;28;20029;-85
2022/05/01 07:29:54;;;;;;;3.95;3.08;;;;;;;32.04;14.69;98589.34;5066658;28;20105;-85
2022/05/01 07:32:20;;;;;;;4.22;2.42;;;;;;;32.39;14.62;98582.00;5068861;28;20032;-85
2022/05/01 07:34:46;;;;;;;4.85;3.40;;;;;;;32.58;15.39;98582.75;5070568;28;20040;-83
2022/05/01 07:37:13;;;;;;;4.30;2.25;;;;;;;32.70;14.43;98573.97;5071395;28;20047;-83
2022/05/01 07:39:40;;;;;;;4.22;1.95;;;;;;;33.11;14.30;98580.91;5070887;28;20370;-86
2022/05/01 07:42:06;;;;;;;3.60;2.53;;;;;;;32.12;14.51;98572.75;5072099;28;20033;-86
2022/05/01 07:44:32;;;;;;;7.38;2.92;;;;;;;31.76;15.59;98577.22;5072002;28;20048;-86
2022/05/01 07:46:58;;;;;;;4.22;2.65;;;;;;;32.39;15.19;98578.34;5055543;28;20047;-84
2022/05/01 07:49:25;;;;;;;6.65;3.72;;;;;;;31.80;15.12;98577.03;5067696;28;20110;-84
2022/05/01 07:51:51;;;;;;;5.30;3.40;;;;;;;31.67;15.09;98580.03;5066486;28;20112;-83
2022/05/01 07:54:17;;;;;;;6.32;4.30;;;;;;;31.85;15.73;98577.22;5065587;28;20142;-84
2022/05/01 07:56:44;;;;;;;5.38;4.38;;;;;;;31.42;16.12;98574.66;5062099;28;20027;-83
2022/05/01 07:59:11;;;;;;;6.40;4.35;;;;;;;30.46;16.32;98580.72;5052858;28;20025;-82
2022/05/01 08:01:38;;;;;;;4.60;3.95;;;;;;;30.88;15.98;98577.41;5068644;28;20045;-84
2022/05/01 08:06:49;;;;;;;5.88;4.32;;;;;;;29.74;16.66;98574.56;5067344;28;20146;-84
2022/05/01 08:09:16;;;;;;;6.35;4.22;;;;;;;29.49;17.41;98581.16;5066867;28;20028;-82
2022/05/01 08:11:42;;;;;;;9.43;5.00;;;;;;;29.81;16.76;98572.31;5066569;28;20056;-83
2022/05/01 08:14:12;;;;;;;8.50;5.07;;;;;;;28.50;18.02;98572.38;5068657;28;20050;-83
2022/05/01 08:16:39;;;;;;;7.88;5.22;;;;;;;29.48;17.12;98570.31;5065928;28;20033;-83
2022/05/01 08:21:51;;;;;;;7.68;5.70;;;;;;;29.98;17.77;98567.22;5056752;28;20047;-84
2022/05/01 08:24:17;;;;;;;7.05;4.57;;;;;;;29.34;16.98;98558.25;5058202;28;20037;-84
2022/05/01 08:26:47;;;;;;;7.30;4.55;;;;;;;28.84;16.90;98551.91;5060103;28;20025;-85
2022/05/01 08:29:14;;;;;;;9.10;5.45;;;;;;;30.17;17.06;98562.44;5061302;28;20025;-82
2022/05/01 08:31:42;;;;;;;5.95;4.32;;;;;;;31.06;16.26;98555.56;5065509;28;20402;-84
2022/05/01 08:34:09;;;;;;;6.10;4.07;;;;;;;29.68;16.06;98556.63;5060737;28;20471;-84
2022/05/01 08:36:36;;;;;;;6.07;3.15;;;;;;;30.27;16.71;98549.91;5060764;28;20171;-84
2022/05/01 08:39:02;;;;;;;8.68;3.80;;;;;;;31.57;15.49;98549.31;5060104;28;20055;-83
2022/05/01 08:41:31;;;;;;;7.68;3.50;;;;;;;32.12;14.11;98547.97;5059042;28;21527;-85
2022/05/01 08:43:58;;;;;;;5.93;3.35;;;;;;;32.33;14.89;98546.16;5046619;28;20055;-82
2022/05/01 08:46:36;;;;;;;4.90;3.20;;;;;;;30.38;15.60;98539.78;5066630;28;20034;-82
2022/05/01 08:49:07;;;;;;;4.53;3.17;;;;;;;29.63;16.80;98538.19;5070343;28;20120;-82
2022/05/01 08:51:39;;;;;;;6.35;2.78;;;;;;;30.41;15.40;98538.81;5067819;28;20116;-82
2022/05/01 08:54:07;;;;;;;4.75;2.92;;;;;;;30.51;15.29;98537.59;5071449;28;20441;-79
2022/05/01 08:56:35;;;;;;;5.60;3.13;;;;;;;31.21;15.25;98533.81;5070878;28;20508;-83
2022/05/01 08:59:15;;;;;;;3.55;2.97;;;;;;;31.35;15.56;98524.69;5069238;28;20036;-80
2022/05/01 09:01:42;;;;;;;;;;;;;;;32.07;14.72;98529.50;5071004;28;20032;-79
2022/05/01 09:04:12;;;;;;;5.57;3.55;;;;;;;30.98;16.43;98533.66;5070161;28;19913;-80
2022/05/01 09:06:41;;;;;;;4.50;3.25;;;;;;;31.76;14.75;98528.94;5065474;28;20033;-81
2022/05/01 09:09:08;;;;;;;3.40;2.75;;;;;;;33.02;14.37;98532.59;5070347;28;20178;-81
2022/05/01 09:14:22;;;;;;;6.10;3.47;;;;;;;33.55;14.82;98531.84;5061888;28;20044;-82
2022/05/01 09:17:19;;;;;;;4.22;3.03;;;;;;;32.28;14.34;98535.47;5072299;28;20473;-81
2022/05/01 09:20:24;;;;;;;4.32;2.50;;;;;;;33.18;14.64;98528.50;5072157;28;20090;-80
2022/05/01 09:22:52;;;;;;;3.60;2.97;;;;;;;30.78;15.84;98531.22;4991793;28;20069;-82
2022/05/01 09:25:22;;;;;;;5.20;3.17;;;;;;;31.05;17.08;98524.81;5045007;28;20116;-81
2022/05/01 09:27:59;;;;;;;3.80;2.63;;;;;;;32.24;15.72;98529.94;5058501;28;20746;-84
2022/05/01 09:30:38;;;;;;;4.50;2.97;;;;;;;32.33;14.36;98521.38;5066084;28;20508;-84
2022/05/01 09:33:04;;;;;;;3.25;2.45;;;;;;;32.71;13.58;98518.69;5059816;28;20079;-84
2022/05/01 09:35:34;;;;;;;3.92;2.17;;;;;;;33.60;13.95;98520.59;5060318;28;20181;-84
2022/05/01 09:38:27;;;;;;;3.30;2.38;;;;;;;34.77;13.90;98511.16;5060241;28;20195;-84
2022/05/01 09:41:02;;;;;;;3.17;2.20;;;;;;;35.09;13.20;98510.06;5061145;28;20047;-84
2022/05/01 09:43:35;;;;;;;2.83;2.17;;;;;;;34.08;14.62;98522.00;5043166;28;20031;-84
2022/05/01 09:46:14;;;;;;;2.60;1.83;;;;;;;34.82;13.14;98499.03;5044191;28;20110;-84
2022/05/01 09:48:43;;;;;;;3.47;2.67;;;;;;;33.70;13.98;98504.94;5067502;28;20471;-84
2022/05/01 09:51:18;;;;;;;2.25;1.75;;;;;;;33.29;14.51;98503.09;5067817;28;20043;-84
2022/05/01 09:53:46;;;;;;;2.38;1.90;;;;;;;33.47;14.77;98493.63;5048925;28;20029;-84
2022/05/01 09:56:12;;;;;;;3.83;1.88;;;;;;;34.36;14.26;98493.94;5067528;28;20025;-85
2022/05/01 09:58:40;;;;;;;3.70;2.03;;;;;;;34.75;13.19;98501.00;5067538;28;20044;-84
2022/05/01 10:01:15;;;;;;;4.57;1.77;;;;;;;35.07;13.21;98493.44;5066272;28;20438;-84
2022/05/01 10:03:45;;;;;;;3.58;2.00;;;;;;;34.99;14.05;98489.41;5064763;28;20033;-85
2022/05/01 10:06:13;;;;;;;2.17;1.63;;;;;;;34.82;13.10;98490.47;5063716;28;20028;-85
2022/05/01 10:08:41;;;;;;;1.15;1.05;;;;;;;34.93;13.44;98485.69;5064314;28;20047;-86
2022/05/01 10:11:07;;;;;;;1.23;1.13;;;;;;;35.16;12.94;98489.63;5067869;28;20063;-85
2022/05/01 10:13:35;;;;;;;2.17;1.35;;;;;;;34.69;13.56;98482.25;5062152;28;20044;-84
2022/05/01 10:16:06;;;;;;;1.50;1.20;;;;;;;35.10;12.51;98474.53;5041010;28;20119;-85
2022/05/01 10:18:32;;;;;;;2.40;1.42;;;;;;;34.91;12.46;98481.78;5037405;28;20033;-85
2022/05/01 10:20:59;;;;;;;1.50;1.20;;;;;;;35.11;12.86;98482.59;5063237;28;20151;-85
2022/05/01 10:23:25;;;;;;;1.65;1.27;;;;;;;35.43;12.73;98474.88;5067846;28;20048;-85
2022/05/01 10:25:56;;;;;;;1.25;1.15;;;;;;;33.64;13.28;98475.59;5066617;28;20036;-85
2022/05/01 10:29:01;;;;;;;1.45;1.35;;;;;;;33.32;13.03;98482.22;5066870;28;20040;-85
2022/05/01 10:35:04;;;;;;;1.33;1.23;;;;;;;33.89;13.10;98468.50;5063273;28;20135;-86
2022/05/01 10:37:52;;;;;;;2.05;1.25;;;;;;;35.36;12.84;98461.06;5066350;28;20485;-84
2022/05/01 10:40:18;;;;;;;5.00;1.10;;;;;;;35.70;12.71;98460.16;5054066;28;20504;-84
2022/05/01 10:42:47;;;;;;;1.10;1.00;;;;;;;35.89;12.30;98464.22;5066551;28;20461;-85
2022/05/01 10:45:22;;;;;;;1.17;0.90;;;;;;;36.05;12.62;98459.97;5067281;28;20139;-84
2022/05/01 10:47:52;;;;;;;1.00;0.93;;;;;;;35.10;12.50;98457.41;5041948;28;20044;-85
2022/05/01 10:50:23;;;;;;;1.10;1.00;;;;;;;33.52;13.22;98462.41;5063325;28;20033;-84
2022/05/01 10:53:08;;;;;;;1.10;1.00;;;;;;;34.32;12.72;98461.19;5038450;28;20068;-85
2022/05/01 10:55:52;;;;;;;1.10;0.93;;;;;;;35.00;12.37;98456.72;5063522;28;20036;-84
2022/05/01 10:58:22;;;;;;;1.85;0.95;;;;;;;35.78;11.67;98449.06;5060412;28;20040;-84
2022/05/01 11:00:51;;;;;;;0.73;0.70;;;;;;;36.24;12.83;98446.06;5060038;28;20048;-85
2022/05/01 11:03:28;;;;;;;1.95;0.90;;;;;;;36.31;11.71;98451.31;5066589;28;20303;-86
2022/05/01 11:06:08;;;;;;;3.60;1.20;;;;;;;34.80;10.64;98447.41;5062086;28;20036;-86
2022/05/01 11:08:39;;;;;;;1.33;1.03;;;;;;;34.71;11.50;98445.44;5056976;28;20043;-85
2022/05/01 11:11:10;;;;;;;1.02;0.93;;;;;;;34.59;13.24;98441.66;5059467;28;20441;-85
2022/05/01 11:13:39;;;;;;;1.35;1.02;;;;;;;35.37;12.61;98445.50;5045114;28;20044;-85
2022/05/01 11:16:07;;;;;;;0.88;0.88;;;;;;;36.07;11.00;98440.22;5067438;28;20028;-84
2022/05/01 11:18:53;;;;;;;0.93;0.82;;;;;;;35.81;11.92;98437.38;5066104;28;20036;-85
2022/05/01 11:21:23;;;;;;;1.23;0.82;;;;;;;35.61;11.52;98434.59;5072280;28;20494;-85
2022/05/01 11:24:04;;;;;;;2.25;1.02;;;;;;;33.97;10.51;98435.50;5073319;28;20068;-84
2022/05/01 11:26:30;;;;;;;;;;;;;;;33.99;11.04;98442.28;5069459;28;20051;-84
2022/05/01 11:29:13;;;;;;;0.82;0.63;;;;;;;35.32;11.65;98429.09;5068739;28;20011;-84
2022/05/01 11:31:49;;;;;;;1.27;0.70;;;;;;;35.24;10.92;98428.72;5065291;28;20367;-86
2022/05/01 11:34:22;;;;;;;0.70;0.70;;;;;;;35.65;11.08;98429.44;5061463;28;20051;-84
2022/05/01 11:37:08;;;;;;;1.10;1.00;;;;;;;35.97;11.17;98430.22;5058203;28;20033;-86
2022/05/01 11:39:46;;;;;;;0.85;0.70;;;;;;;36.86;11.44;98427.94;5066856;28;20034;-88
2022/05/01 11:42:25;;;;;;;1.75;0.70;;;;;;;37.30;10.56;98428.13;5068830;28;20032;-87
2022/05/01 11:44:57;;;;;;;1.20;0.73;;;;;;;37.27;9.95;98429.94;5069151;28;20036;-86
2022/05/01 11:47:26;;;;;;;0.60;0.60;;;;;;;36.87;9.82;98423.81;5069215;28;20032;-86
2022/05/01 11:49:53;;;;;;;0.53;0.53;;;;;;;36.22;10.30;98426.56;5070047;28;20036;-86
2022/05/01 11:52:22;;;;;;;0.80;0.70;;;;;;;36.18;11.15;98425.19;5068571;28;20041;-86
2022/05/01 11:54:55;;;;;;;0.70;0.60;;;;;;;34.83;10.15;98427.19;5063158;28;20033;-86
2022/05/01 12:03:03;;;;;;;0.73;0.63;;;;;;;36.37;10.71;98421.44;5062753;28;20094;-85
2022/05/01 12:05:43;;;;;;;1.23;0.80;;;;;;;37.03;10.91;98415.31;5062450;28;20050;-83
2022/05/01 12:08:10;;;;;;;0.60;0.60;;;;;;;37.57;10.55;98410.25;5063211;28;20033;-83
2022/05/01 12:10:44;;;;;;;0.82;0.65;;;;;;;37.93;11.08;98411.31;5060287;28;20037;-84
2022/05/01 12:13:21;;;;;;;0.68;0.65;;;;;;;38.24;10.58;98408.16;5062403;28;20074;-86